Xekmatt — OR2473 — position and weather

sailwx.info

Track history (hours):
 
Tides and Currents Weather Stations Pressure Air Temp Water Temp Dewpoint Dewpoint Depression Visibility Wind Speed Wind Dir Waves Ship Positions

Xekmatt

Last reported at 2016-Jun-29 12:08 UTC. Time now 2016-Jul-02 04:02 UTC.
Position N 38°60' W 009°30'.

Length 14 m.

Type: Sailing vessel. MMSI: 205247310.

Date/timePositionNaut miles runAvg speedWind from/ knotsBaromVisibWave heightAir tempDewpointWater temp
2016-Jun-29 12:08N 38°60' W 009°30'5 5.2
2016-Jun-29 11:13N 38°56' W 009°27'3 4.3
2016-Jun-29 10:28N 38°53' W 009°27'6 6.8
2016-Jun-29 09:33N 38°49' W 009°33'5 5.1
2016-Jun-29 08:32N 38°45' W 009°37'6 6.2
2016-Jun-29 07:33N 38°42' W 009°30'8 7.7
2016-Jun-29 06:33N 38°40' W 009°21'9 0.4
2016-Jun-28 06:29N 38°42' W 009°10'15 6.8
2016-Jun-28 04:12N 38°42' W 009°29'2 3.1
2016-Jun-28 03:33N 38°43' W 009°32'8 7.1
2016-Jun-28 02:28N 38°41' W 009°22'9 0.3
2016-Jun-26 16:32N 38°42' W 009°10'2 1.5
2016-Jun-26 15:28N 38°42' W 009°12'0 0.0
2016-Jun-26 12:04N 38°42' W 009°12'0 0.4
2016-Jun-26 11:33N 38°42' W 009°12'0 0.4
2016-Jun-26 10:31N 38°41' W 009°12'2 0.1
2016-Jun-25 17:33N 38°42' W 009°10'0 0.0
2016-Jun-23 21:16N 38°42' W 009°10'  
2016-Jun-19 14:14N 38°42' W 009°10'2 3.1
2016-Jun-19 13:33N 38°41' W 009°12'0 0.4
2016-Jun-19 12:30N 38°41' W 009°12'  
Track history (hours):
 
Tides and Currents Weather Stations Pressure Air Temp Water Temp Dewpoint Dewpoint Depression Visibility Wind Speed Wind Dir Waves Ship Positions

Xekmatt

Last reported at 2016-Jun-29 12:08 UTC. Time now 2016-Jul-02 04:02 UTC.
Position N 38°60' W 009°30'.

Length 14 m.

Type: Sailing vessel. MMSI: 205247310.

Date/timePositionNaut miles runAvg speedWind from/ knotsBaromVisibWave heightAir tempDewpointWater temp
2016-Jun-29 12:08N 38°60' W 009°30'5 5.2
2016-Jun-29 11:13N 38°56' W 009°27'3 4.3
2016-Jun-29 10:28N 38°53' W 009°27'6 6.8
2016-Jun-29 09:33N 38°49' W 009°33'5 5.1
2016-Jun-29 08:32N 38°45' W 009°37'6 6.2
2016-Jun-29 07:33N 38°42' W 009°30'8 7.7
2016-Jun-29 06:33N 38°40' W 009°21'9 0.4
2016-Jun-28 06:29N 38°42' W 009°10'15 6.8
2016-Jun-28 04:12N 38°42' W 009°29'2 3.1
2016-Jun-28 03:33N 38°43' W 009°32'8 7.1
2016-Jun-28 02:28N 38°41' W 009°22'9 0.3
2016-Jun-26 16:32N 38°42' W 009°10'2 1.5
2016-Jun-26 15:28N 38°42' W 009°12'0 0.0
2016-Jun-26 12:04N 38°42' W 009°12'0 0.4
2016-Jun-26 11:33N 38°42' W 009°12'0 0.4
2016-Jun-26 10:31N 38°41' W 009°12'2 0.1
2016-Jun-25 17:33N 38°42' W 009°10'0 0.0
2016-Jun-23 21:16N 38°42' W 009°10'  
2016-Jun-19 14:14N 38°42' W 009°10'2 3.1
2016-Jun-19 13:33N 38°41' W 009°12'0 0.4
2016-Jun-19 12:30N 38°41' W 009°12'  

Dump ship's entire track history